sensor_id;sensor_type;location;lat;lon;timestamp;pressure;altitude;pressure_sealevel;temperature;humidity
72975;BME280;61166;54.228;37.632;2022-09-03T00:10:36;99941.66;;;4.02;nan
72975;BME280;61166;54.228;37.632;2022-09-03T00:13:06;99942.34;;;4.04;nan
72975;BME280;61166;54.228;37.632;2022-09-03T00:15:35;99948.13;;;3.98;nan
72975;BME280;61166;54.228;37.632;2022-09-03T00:18:15;99955.88;;;3.90;nan
72975;BME280;61166;54.228;37.632;2022-09-03T00:20:55;99964.50;;;3.90;nan
72975;BME280;61166;54.228;37.632;2022-09-03T00:23:26;99960.41;;;3.88;nan
72975;BME280;61166;54.228;37.632;2022-09-03T00:26:14;99975.06;;;3.89;nan
72975;BME280;61166;54.228;37.632;2022-09-03T00:28:45;99965.09;;;3.84;nan
72975;BME280;61166;54.228;37.632;2022-09-03T00:33:43;99977.59;;;3.81;nan
72975;BME280;61166;54.228;37.632;2022-09-03T00:36:13;99974.00;;;3.82;nan
72975;BME280;61166;54.228;37.632;2022-09-03T01:02:03;99982.91;;;3.61;nan
72975;BME280;61166;54.228;37.632;2022-09-03T01:09:50;99989.66;;;3.54;nan
72975;BME280;61166;54.228;37.632;2022-09-03T01:23:47;100000.78;;;3.47;nan
72975;BME280;61166;54.228;37.632;2022-09-03T01:26:50;99995.91;;;3.44;nan
72975;BME280;61166;54.228;37.632;2022-09-03T01:34:37;99996.22;;;3.41;nan
72975;BME280;61166;54.228;37.632;2022-09-03T01:43:20;100000.63;;;3.30;nan
72975;BME280;61166;54.228;37.632;2022-09-03T01:46:06;99999.44;;;3.25;nan
72975;BME280;61166;54.228;37.632;2022-09-03T01:48:53;99995.19;;;3.24;nan
72975;BME280;61166;54.228;37.632;2022-09-03T01:51:29;99997.94;;;3.22;nan
72975;BME280;61166;54.228;37.632;2022-09-03T01:59:30;100002.88;;;3.16;nan
72975;BME280;61166;54.228;37.632;2022-09-03T03:13:27;100053.38;;;10.93;nan
72975;BME280;61166;54.228;37.632;2022-09-03T03:15:57;100048.88;;;11.69;nan
72975;BME280;61166;54.228;37.632;2022-09-03T03:18:23;100053.31;;;12.22;nan
72975;BME280;61166;54.228;37.632;2022-09-03T03:20:49;100049.03;;;12.87;nan
72975;BME280;61166;54.228;37.632;2022-09-03T03:23:15;100048.31;;;13.51;nan
72975;BME280;61166;54.228;37.632;2022-09-03T03:28:06;100047.03;;;14.62;nan
72975;BME280;61166;54.228;37.632;2022-09-03T03:30:33;100052.16;;;15.25;nan
72975;BME280;61166;54.228;37.632;2022-09-03T05:27:20;100118.81;;;29.69;nan
72975;BME280;61166;54.228;37.632;2022-09-03T05:32:11;100119.56;;;29.44;nan
72975;BME280;61166;54.228;37.632;2022-09-03T05:39:32;100123.84;;;30.53;nan
72975;BME280;61166;54.228;37.632;2022-09-03T05:44:22;100126.06;;;31.24;nan
72975;BME280;61166;54.228;37.632;2022-09-03T05:46:48;100128.63;;;31.29;nan
72975;BME280;61166;54.228;37.632;2022-09-03T05:49:15;100129.00;;;31.48;nan
72975;BME280;61166;54.228;37.632;2022-09-03T05:51:41;100130.44;;;31.16;nan
72975;BME280;61166;54.228;37.632;2022-09-03T05:54:08;100123.16;;;30.91;nan
72975;BME280;61166;54.228;37.632;2022-09-03T05:56:35;100123.91;;;31.09;nan
72975;BME280;61166;54.228;37.632;2022-09-03T05:59:03;100128.69;;;31.50;nan
72975;BME280;61166;54.228;37.632;2022-09-03T06:01:37;100124.97;;;31.25;nan
72975;BME280;61166;54.228;37.632;2022-09-03T06:04:03;100129.47;;;31.12;nan
72975;BME280;61166;54.228;37.632;2022-09-03T06:06:31;100136.47;;;30.41;nan
72975;BME280;61166;54.228;37.632;2022-09-03T06:09:03;100130.13;;;31.09;nan
72975;BME280;61166;54.228;37.632;2022-09-03T06:11:30;100129.16;;;31.52;nan
72975;BME280;61166;54.228;37.632;2022-09-03T06:14:01;100132.50;;;32.08;nan
72975;BME280;61166;54.228;37.632;2022-09-03T06:16:29;100122.63;;;32.24;nan
72975;BME280;61166;54.228;37.632;2022-09-03T06:18:55;100122.91;;;32.31;nan
72975;BME280;61166;54.228;37.632;2022-09-03T06:21:21;100133.94;;;32.47;nan
72975;BME280;61166;54.228;37.632;2022-09-03T06:23:51;100126.19;;;32.91;nan
72975;BME280;61166;54.228;37.632;2022-09-03T06:28:45;100136.16;;;32.87;nan
72975;BME280;61166;54.228;37.632;2022-09-03T06:31:15;100131.84;;;32.98;nan
72975;BME280;61166;54.228;37.632;2022-09-03T06:33:41;100132.09;;;32.93;nan
72975;BME280;61166;54.228;37.632;2022-09-03T06:36:10;100134.41;;;33.52;nan
72975;BME280;61166;54.228;37.632;2022-09-03T06:38:38;100123.94;;;33.17;nan
72975;BME280;61166;54.228;37.632;2022-09-03T06:41:09;100128.59;;;33.53;nan
72975;BME280;61166;54.228;37.632;2022-09-03T06:43:40;100133.84;;;33.83;nan
72975;BME280;61166;54.228;37.632;2022-09-03T06:48:32;100126.28;;;32.61;nan
72975;BME280;61166;54.228;37.632;2022-09-03T06:51:01;100126.56;;;33.26;nan
72975;BME280;61166;54.228;37.632;2022-09-03T06:53:33;100129.31;;;33.38;nan
72975;BME280;61166;54.228;37.632;2022-09-03T06:56:00;100122.69;;;33.88;nan
72975;BME280;61166;54.228;37.632;2022-09-03T06:58:31;100124.34;;;32.95;nan
72975;BME280;61166;54.228;37.632;2022-09-03T07:01:14;100130.22;;;33.30;nan
72975;BME280;61166;54.228;37.632;2022-09-03T07:03:42;100131.09;;;33.58;nan
72975;BME280;61166;54.228;37.632;2022-09-03T07:06:13;100140.19;;;33.74;nan
72975;BME280;61166;54.228;37.632;2022-09-03T07:08:40;100137.22;;;34.04;nan
72975;BME280;61166;54.228;37.632;2022-09-03T07:11:15;100136.75;;;34.02;nan
72975;BME280;61166;54.228;37.632;2022-09-03T07:13:45;100139.50;;;34.02;nan
72975;BME280;61166;54.228;37.632;2022-09-03T07:16:14;100139.44;;;34.14;nan
72975;BME280;61166;54.228;37.632;2022-09-03T07:18:40;100136.22;;;33.96;nan
72975;BME280;61166;54.228;37.632;2022-09-03T07:21:10;100134.28;;;33.72;nan
72975;BME280;61166;54.228;37.632;2022-09-03T07:23:37;100138.50;;;33.94;nan
72975;BME280;61166;54.228;37.632;2022-09-03T07:26:08;100127.50;;;33.30;nan
72975;BME280;61166;54.228;37.632;2022-09-03T07:28:36;100134.53;;;32.53;nan
72975;BME280;61166;54.228;37.632;2022-09-03T07:31:07;100122.81;;;32.40;nan
72975;BME280;61166;54.228;37.632;2022-09-03T07:33:34;100124.78;;;31.89;nan
72975;BME280;61166;54.228;37.632;2022-09-03T07:40:57;100131.28;;;27.28;nan
72975;BME280;61166;54.228;37.632;2022-09-03T07:43:25;100133.66;;;27.02;nan
72975;BME280;61166;54.228;37.632;2022-09-03T07:45:50;100136.59;;;26.17;nan
72975;BME280;61166;54.228;37.632;2022-09-03T07:48:16;100138.69;;;25.82;nan
72975;BME280;61166;54.228;37.632;2022-09-03T07:50:42;100138.44;;;25.55;nan
72975;BME280;61166;54.228;37.632;2022-09-03T07:53:07;100138.88;;;25.62;nan
72975;BME280;61166;54.228;37.632;2022-09-03T07:55:33;100140.50;;;26.06;nan
72975;BME280;61166;54.228;37.632;2022-09-03T07:57:58;100132.91;;;25.70;nan
72975;BME280;61166;54.228;37.632;2022-09-03T08:10:09;100129.19;;;22.40;nan
72975;BME280;61166;54.228;37.632;2022-09-03T08:47:14;100097.47;;;29.85;nan
72975;BME280;61166;54.228;37.632;2022-09-03T08:49:43;100097.56;;;29.54;nan
72975;BME280;61166;54.228;37.632;2022-09-03T08:52:35;100084.91;;;29.98;nan
72975;BME280;61166;54.228;37.632;2022-09-03T08:57:54;100070.22;;;32.60;nan
72975;BME280;61166;54.228;37.632;2022-09-03T09:00:21;100079.56;;;33.41;nan
72975;BME280;61166;54.228;37.632;2022-09-03T09:05:18;100078.53;;;32.64;nan
72975;BME280;61166;54.228;37.632;2022-09-03T09:11:03;100075.19;;;33.15;nan
72975;BME280;61166;54.228;37.632;2022-09-03T09:14:01;100083.13;;;32.51;nan
72975;BME280;61166;54.228;37.632;2022-09-03T09:16:39;100075.97;;;32.46;nan
72975;BME280;61166;54.228;37.632;2022-09-03T09:22:10;100081.66;;;32.54;nan
72975;BME280;61166;54.228;37.632;2022-09-03T09:24:47;100076.50;;;32.73;nan
72975;BME280;61166;54.228;37.632;2022-09-03T09:27:15;100073.47;;;32.99;nan
72975;BME280;61166;54.228;37.632;2022-09-03T09:29:42;100078.03;;;33.07;nan
72975;BME280;61166;54.228;37.632;2022-09-03T09:32:11;100070.78;;;32.54;nan
72975;BME280;61166;54.228;37.632;2022-09-03T09:34:39;100070.31;;;32.52;nan
72975;BME280;61166;54.228;37.632;2022-09-03T09:37:09;100072.22;;;32.18;nan
72975;BME280;61166;54.228;37.632;2022-09-03T09:39:35;100059.44;;;31.77;nan
72975;BME280;61166;54.228;37.632;2022-09-03T09:42:08;100059.03;;;31.37;nan
72975;BME280;61166;54.228;37.632;2022-09-03T09:44:41;100066.88;;;31.00;nan
72975;BME280;61166;54.228;37.632;2022-09-03T09:49:55;100062.38;;;30.58;nan
72975;BME280;61166;54.228;37.632;2022-09-03T09:52:23;100062.59;;;30.01;nan
72975;BME280;61166;54.228;37.632;2022-09-03T09:54:51;100056.31;;;30.26;nan
72975;BME280;61166;54.228;37.632;2022-09-03T09:57:21;100063.06;;;28.89;nan
72975;BME280;61166;54.228;37.632;2022-09-03T10:04:39;100074.22;;;24.90;nan
72975;BME280;61166;54.228;37.632;2022-09-03T22:02:47;99920.66;;;7.01;nan
72975;BME280;61166;54.228;37.632;2022-09-03T22:05:14;99918.91;;;6.93;nan
72975;BME280;61166;54.228;37.632;2022-09-03T22:10:23;99911.75;;;6.87;nan
72975;BME280;61166;54.228;37.632;2022-09-03T22:43:33;99905.84;;;7.70;nan
72975;BME280;61166;54.228;37.632;2022-09-03T22:51:04;99917.56;;;7.82;nan
72975;BME280;61166;54.228;37.632;2022-09-03T23:04:24;99901.38;;;7.78;nan
72975;BME280;61166;54.228;37.632;2022-09-03T23:29:54;99915.91;;;8.18;nan
72975;BME280;61166;54.228;37.632;2022-09-03T23:32:21;99913.28;;;8.18;nan
72975;BME280;61166;54.228;37.632;2022-09-03T23:37:22;99909.75;;;7.97;nan
72975;BME280;61166;54.228;37.632;2022-09-03T23:45:48;99922.91;;;7.88;nan
72975;BME280;61166;54.228;37.632;2022-09-03T23:53:30;99908.66;;;7.91;nan
